createdAt,value
2023-05-06T00:01:09.306Z,10.31
2023-05-06T00:03:35.962Z,10.26
2023-05-06T00:06:06.350Z,10.32
2023-05-06T00:08:32.906Z,10.34
2023-05-06T00:10:59.448Z,10.36
2023-05-06T00:13:25.982Z,10.34
2023-05-06T00:15:52.587Z,10.33
2023-05-06T00:18:19.158Z,10.33
2023-05-06T00:20:45.631Z,10.35
2023-05-06T00:23:12.214Z,10.35
2023-05-06T00:25:38.741Z,10.36
2023-05-06T00:28:05.200Z,10.34
2023-05-06T00:30:31.706Z,10.38
2023-05-06T00:32:58.303Z,10.39
2023-05-06T00:35:24.816Z,10.37
2023-05-06T00:38:07.712Z,10.33
2023-05-06T00:40:34.311Z,10.35
2023-05-06T00:43:00.817Z,10.32
2023-05-06T00:45:27.416Z,10.25
2023-05-06T00:47:54.423Z,10.23
2023-05-06T00:50:21.761Z,10.18
2023-05-06T00:52:49.231Z,10.18
2023-05-06T00:55:16.122Z,10.17
2023-05-06T00:57:42.701Z,10.13
2023-05-06T01:00:11.514Z,10.06
2023-05-06T01:02:46.304Z,10.04
2023-05-06T01:05:14.162Z,10.00
2023-05-06T01:07:58.801Z,9.93
2023-05-06T01:10:35.598Z,9.83
2023-05-06T01:13:07.158Z,9.84
2023-05-06T01:15:43.183Z,9.70
2023-05-06T01:18:13.686Z,9.77
2023-05-06T01:20:42.227Z,9.74
2023-05-06T01:23:15.061Z,9.72
2023-05-06T01:25:41.966Z,9.67
2023-05-06T01:28:11.421Z,9.67
2023-05-06T01:30:49.879Z,9.66
2023-05-06T01:33:29.480Z,9.63
2023-05-06T01:36:08.785Z,9.65
2023-05-06T01:39:01.226Z,9.54
2023-05-06T01:41:28.220Z,9.67
2023-05-06T01:43:56.633Z,9.65
2023-05-06T01:46:24.744Z,9.58
2023-05-06T01:48:54.218Z,9.52
2023-05-06T01:51:22.122Z,9.51
2023-05-06T01:53:48.569Z,9.50
2023-05-06T01:56:15.110Z,9.50
2023-05-06T01:58:41.533Z,9.49
2023-05-06T02:01:08.003Z,9.46
2023-05-06T02:03:34.582Z,9.45
2023-05-06T02:06:01.095Z,9.34
2023-05-06T02:08:27.511Z,9.25
2023-05-06T02:10:54.130Z,9.24
2023-05-06T02:13:20.740Z,9.24
2023-05-06T02:15:47.300Z,9.29
2023-05-06T02:18:13.700Z,9.22
2023-05-06T02:20:40.270Z,9.27
2023-05-06T02:23:06.798Z,9.25
2023-05-06T02:25:33.521Z,9.28
2023-05-06T02:27:59.956Z,9.33
2023-05-06T02:30:30.489Z,9.23
2023-05-06T02:32:57.552Z,9.21
2023-05-06T02:35:24.565Z,9.24
2023-05-06T02:37:51.116Z,9.23
2023-05-06T02:40:17.607Z,9.18
2023-05-06T02:42:44.148Z,9.21
2023-05-06T02:45:11.411Z,9.22
2023-05-06T02:47:38.209Z,9.18
2023-05-06T02:50:04.933Z,9.17
2023-05-06T02:52:32.521Z,9.12
2023-05-06T02:54:59.097Z,9.12
2023-05-06T02:57:25.675Z,9.07
2023-05-06T02:59:52.096Z,9.05
2023-05-06T03:02:18.510Z,9.03
2023-05-06T03:04:44.992Z,9.02
2023-05-06T03:07:12.609Z,8.92
2023-05-06T03:09:39.467Z,8.91
2023-05-06T03:12:06.219Z,8.89
2023-05-06T03:14:33.777Z,8.83
2023-05-06T03:17:00.463Z,8.86
2023-05-06T03:19:27.004Z,8.81
2023-05-06T03:21:53.501Z,8.74
2023-05-06T03:24:20.070Z,8.77
2023-05-06T03:26:46.581Z,8.82
2023-05-06T03:29:13.116Z,8.79
2023-05-06T03:31:41.986Z,8.80
2023-05-06T03:34:08.585Z,8.78
2023-05-06T03:36:35.050Z,8.78
2023-05-06T03:39:01.747Z,8.74
2023-05-06T03:41:28.223Z,8.73
2023-05-06T03:43:55.768Z,8.69
2023-05-06T03:46:22.557Z,8.58
2023-05-06T03:48:49.130Z,8.60
2023-05-06T03:51:15.693Z,8.63
2023-05-06T03:53:42.292Z,8.67
2023-05-06T03:56:08.915Z,8.69
2023-05-06T03:58:35.875Z,8.62
2023-05-06T04:01:02.360Z,8.66
2023-05-06T04:03:28.966Z,8.57
2023-05-06T04:05:55.638Z,8.49
2023-05-06T04:08:22.134Z,8.50
2023-05-06T04:10:48.710Z,8.52
2023-05-06T04:13:15.446Z,8.56
2023-05-06T04:15:42.587Z,8.60
2023-05-06T04:18:09.189Z,8.60
2023-05-06T04:20:35.843Z,8.62
2023-05-06T04:23:02.392Z,8.69
2023-05-06T04:25:28.877Z,8.74
2023-05-06T04:27:55.461Z,8.77
2023-05-06T04:30:22.562Z,8.82
2023-05-06T04:32:49.108Z,8.84
2023-05-06T04:35:16.290Z,8.85
2023-05-06T04:37:43.498Z,8.90
2023-05-06T04:40:12.966Z,8.98
2023-05-06T04:42:39.600Z,9.03
2023-05-06T04:45:06.593Z,9.09
2023-05-06T04:47:33.946Z,9.11
2023-05-06T04:50:00.359Z,9.15
2023-05-06T04:52:26.885Z,9.15
2023-05-06T04:54:53.327Z,9.18
2023-05-06T04:57:19.754Z,9.13
2023-05-06T04:59:46.635Z,9.23
2023-05-06T05:02:13.115Z,9.27
2023-05-06T05:04:39.721Z,9.29
2023-05-06T05:07:07.356Z,9.35
2023-05-06T05:09:34.944Z,9.34
2023-05-06T05:12:04.368Z,9.40
2023-05-06T05:14:30.862Z,9.39
2023-05-06T05:16:57.483Z,9.37
2023-05-06T05:19:23.976Z,9.45
2023-05-06T05:21:50.526Z,9.49
2023-05-06T05:24:16.962Z,9.52
2023-05-06T05:26:43.565Z,9.53
2023-05-06T05:29:10.140Z,9.55
2023-05-06T05:31:36.701Z,9.55
2023-05-06T05:34:03.262Z,9.58
2023-05-06T05:36:29.745Z,9.60
2023-05-06T05:38:57.141Z,9.65
2023-05-06T05:41:23.674Z,9.68
2023-05-06T05:43:50.110Z,9.79
2023-05-06T05:46:17.062Z,9.90
2023-05-06T05:48:44.575Z,10.00
2023-05-06T05:51:11.164Z,10.12
2023-05-06T05:53:37.892Z,10.27
2023-05-06T05:56:04.622Z,10.36
2023-05-06T05:58:31.017Z,10.36
2023-05-06T06:00:57.440Z,10.49
2023-05-06T06:03:24.015Z,10.40
2023-05-06T06:05:52.882Z,10.35
2023-05-06T06:08:19.463Z,10.44
2023-05-06T06:10:46.216Z,10.41
2023-05-06T06:13:13.354Z,10.51
2023-05-06T06:15:40.402Z,10.55
2023-05-06T06:18:08.781Z,10.64
2023-05-06T06:20:35.900Z,10.65
2023-05-06T06:23:02.449Z,10.76
2023-05-06T06:25:29.076Z,10.94
2023-05-06T06:27:57.165Z,10.88
2023-05-06T06:30:24.191Z,11.09
2023-05-06T06:32:52.936Z,11.16
2023-05-06T06:35:26.107Z,11.13
2023-05-06T06:37:52.747Z,11.17
2023-05-06T06:40:19.955Z,11.25
2023-05-06T06:42:49.386Z,11.33
2023-05-06T06:45:15.894Z,11.32
2023-05-06T06:47:42.458Z,11.34
2023-05-06T06:50:09.843Z,11.34
2023-05-06T06:52:36.282Z,11.40
2023-05-06T06:55:03.169Z,11.42
2023-05-06T06:57:29.626Z,11.52
2023-05-06T06:59:56.270Z,11.56
2023-05-06T07:02:22.996Z,11.60
2023-05-06T07:04:49.523Z,11.55
2023-05-06T07:07:16.025Z,11.82
2023-05-06T07:09:44.181Z,11.86
2023-05-06T07:12:10.730Z,11.93
2023-05-06T07:14:37.200Z,11.98
2023-05-06T07:17:03.701Z,12.18
2023-05-06T07:19:31.559Z,12.33
2023-05-06T07:21:58.075Z,12.34
2023-05-06T07:24:24.688Z,12.36
2023-05-06T07:26:51.164Z,12.53
2023-05-06T07:29:17.695Z,12.55
2023-05-06T07:31:44.285Z,12.53
2023-05-06T07:34:11.055Z,12.53
2023-05-06T07:36:40.820Z,12.63
2023-05-06T07:39:07.899Z,12.72
2023-05-06T07:41:34.537Z,12.75
2023-05-06T07:44:01.264Z,12.82
2023-05-06T07:46:27.874Z,13.02
2023-05-06T07:48:54.541Z,13.17
2023-05-06T07:51:21.712Z,13.22
2023-05-06T07:53:48.149Z,13.20
2023-05-06T07:56:14.662Z,13.20
2023-05-06T07:58:41.209Z,13.57
2023-05-06T08:01:07.743Z,14.10
2023-05-06T08:03:35.667Z,14.35
2023-05-06T08:06:02.375Z,14.24
2023-05-06T08:08:29.177Z,14.13
2023-05-06T08:10:56.118Z,14.22
2023-05-06T08:13:22.724Z,14.01
2023-05-06T08:15:49.571Z,14.00
2023-05-06T08:18:22.477Z,13.92
2023-05-06T08:20:49.712Z,13.97
2023-05-06T08:23:16.289Z,14.04
2023-05-06T08:25:43.006Z,14.36
2023-05-06T08:28:09.464Z,14.61
2023-05-06T08:30:36.638Z,14.52
2023-05-06T08:33:03.331Z,14.63
2023-05-06T08:35:31.041Z,14.91
2023-05-06T08:37:57.442Z,15.06
2023-05-06T08:40:26.966Z,15.30
2023-05-06T08:42:56.045Z,15.38
2023-05-06T08:45:23.597Z,15.45
2023-05-06T08:47:50.097Z,15.41
2023-05-06T08:50:16.720Z,15.40
2023-05-06T08:52:43.916Z,15.49
2023-05-06T08:55:11.556Z,15.68
2023-05-06T08:57:38.495Z,15.90
2023-05-06T09:00:05.783Z,15.97
2023-05-06T09:02:32.389Z,16.02
2023-05-06T09:04:59.807Z,15.95
2023-05-06T09:07:26.452Z,15.80
2023-05-06T09:09:52.918Z,16.07
2023-05-06T09:12:21.377Z,16.34
2023-05-06T09:14:50.158Z,16.36
2023-05-06T09:17:24.357Z,16.31
2023-05-06T09:19:54.858Z,16.31
2023-05-06T09:22:22.309Z,16.32
2023-05-06T09:24:57.998Z,16.28
2023-05-06T09:27:29.509Z,16.26
2023-05-06T09:30:05.365Z,16.22
2023-05-06T09:32:32.841Z,16.14
2023-05-06T09:34:59.650Z,16.37
2023-05-06T09:37:27.272Z,16.35
2023-05-06T09:39:56.363Z,16.38
2023-05-06T09:42:25.513Z,16.57
2023-05-06T09:44:54.780Z,16.67
2023-05-06T09:47:22.865Z,16.78
2023-05-06T09:49:49.431Z,16.80
2023-05-06T09:52:16.365Z,16.82
2023-05-06T09:54:43.288Z,16.71
2023-05-06T09:57:10.487Z,16.73
2023-05-06T09:59:38.262Z,16.89
2023-05-06T10:02:04.865Z,17.09
2023-05-06T10:04:35.059Z,17.07
2023-05-06T10:07:03.263Z,17.18
2023-05-06T10:09:30.002Z,17.25
2023-05-06T10:11:57.356Z,17.13
2023-05-06T10:14:23.778Z,17.04
2023-05-06T10:16:50.534Z,16.88
2023-05-06T10:19:21.077Z,16.93
2023-05-06T10:21:54.052Z,16.83
2023-05-06T10:24:29.202Z,16.94
2023-05-06T10:26:56.491Z,17.03
2023-05-06T10:29:26.061Z,17.14
2023-05-06T10:31:57.326Z,17.13
2023-05-06T10:34:25.609Z,17.35
2023-05-06T10:36:57.542Z,17.19
2023-05-06T10:39:24.902Z,17.17
2023-05-06T10:41:51.404Z,17.36
2023-05-06T10:44:17.882Z,17.48
2023-05-06T10:46:59.726Z,17.33
2023-05-06T10:49:27.036Z,17.33
2023-05-06T10:52:14.634Z,17.49
2023-05-06T10:54:49.546Z,17.46
2023-05-06T10:57:16.159Z,17.38
2023-05-06T10:59:47.132Z,17.50
2023-05-06T11:02:14.013Z,17.67
2023-05-06T11:04:40.848Z,17.52
2023-05-06T11:07:10.663Z,17.49
2023-05-06T11:10:06.167Z,17.48
2023-05-06T11:12:53.638Z,17.44
2023-05-06T11:15:26.795Z,17.80
2023-05-06T11:17:56.769Z,17.76
2023-05-06T11:20:25.276Z,17.54
2023-05-06T11:22:52.759Z,17.61
2023-05-06T11:25:42.508Z,17.83
2023-05-06T11:28:11.756Z,17.75
2023-05-06T11:30:41.563Z,17.62
2023-05-06T11:33:17.075Z,17.95
2023-05-06T11:35:45.107Z,18.10
2023-05-06T11:38:12.141Z,18.05
2023-05-06T11:40:41.559Z,18.10
2023-05-06T11:43:12.488Z,18.10
2023-05-06T11:45:47.628Z,18.18
2023-05-06T11:48:18.124Z,18.02
2023-05-06T11:50:47.341Z,17.79
2023-05-06T11:53:16.571Z,17.97
2023-05-06T11:55:44.462Z,18.10
2023-05-06T11:58:24.981Z,18.19
2023-05-06T12:01:01.779Z,18.44
2023-05-06T12:03:31.275Z,18.58
2023-05-06T12:05:58.669Z,18.67
2023-05-06T12:08:33.636Z,18.71
2023-05-06T12:11:05.357Z,18.64
2023-05-06T12:13:32.616Z,18.53
2023-05-06T12:16:00.520Z,18.35
2023-05-06T12:18:27.832Z,18.36
2023-05-06T12:20:55.163Z,18.23
2023-05-06T12:23:22.145Z,18.19
2023-05-06T12:26:09.202Z,18.17
2023-05-06T12:28:36.826Z,17.99
2023-05-06T12:31:23.355Z,18.28
2023-05-06T12:33:50.553Z,18.31
2023-05-06T12:36:19.087Z,18.24
2023-05-06T12:38:58.856Z,18.19
2023-05-06T12:41:44.559Z,18.19
2023-05-06T12:44:50.604Z,18.15
2023-05-06T12:47:24.914Z,17.99
2023-05-06T12:49:55.143Z,17.92
2023-05-06T12:52:23.611Z,18.00
2023-05-06T12:54:52.833Z,18.13
2023-05-06T12:57:19.619Z,18.39
2023-05-06T12:59:46.248Z,18.29
2023-05-06T13:02:13.469Z,18.36
2023-05-06T13:04:40.785Z,18.31
2023-05-06T13:07:07.458Z,18.23
2023-05-06T13:09:34.055Z,18.23
2023-05-06T13:12:02.364Z,18.04
2023-05-06T13:14:28.808Z,18.02
2023-05-06T13:16:55.272Z,18.09
2023-05-06T13:19:32.347Z,18.11
2023-05-06T13:22:00.449Z,17.96
2023-05-06T13:24:27.195Z,17.81
2023-05-06T13:26:53.763Z,17.74
2023-05-06T13:29:20.348Z,17.64
2023-05-06T13:31:46.792Z,17.61
2023-05-06T13:34:13.226Z,17.60
2023-05-06T13:36:39.739Z,17.64
2023-05-06T13:39:06.448Z,17.69
2023-05-06T13:41:33.034Z,17.60
2023-05-06T13:43:59.528Z,17.50
2023-05-06T13:46:27.283Z,17.46
2023-05-06T13:48:53.975Z,17.39
2023-05-06T13:51:20.753Z,17.38
2023-05-06T13:53:47.284Z,17.34
2023-05-06T13:56:13.818Z,17.28
2023-05-06T13:58:40.281Z,17.30
2023-05-06T14:01:07.282Z,17.25
2023-05-06T14:03:33.860Z,17.20
2023-05-06T14:06:01.367Z,17.14
2023-05-06T14:08:27.849Z,17.10
2023-05-06T14:10:54.401Z,17.12
2023-05-06T14:13:21.023Z,17.09
2023-05-06T14:15:47.646Z,17.11
2023-05-06T14:18:14.333Z,17.16
2023-05-06T14:20:41.307Z,17.14
2023-05-06T14:23:08.032Z,17.11
2023-05-06T14:25:34.741Z,17.13
2023-05-06T14:28:01.279Z,17.13
2023-05-06T14:30:27.795Z,17.08
2023-05-06T14:32:54.340Z,17.00
2023-05-06T14:35:20.975Z,16.99
2023-05-06T14:37:47.443Z,16.91
2023-05-06T14:40:15.470Z,16.85
2023-05-06T14:42:41.992Z,16.75
2023-05-06T14:45:09.089Z,16.72
2023-05-06T14:47:35.945Z,16.69
2023-05-06T14:50:02.615Z,16.62
2023-05-06T14:52:29.091Z,16.61
2023-05-06T14:54:55.616Z,16.60
2023-05-06T14:57:22.474Z,16.50
2023-05-06T14:59:50.526Z,16.66
2023-05-06T15:02:16.968Z,16.75
2023-05-06T15:04:43.467Z,16.84
2023-05-06T15:07:10.966Z,16.88
2023-05-06T15:09:39.951Z,16.99
2023-05-06T15:12:06.811Z,17.08
2023-05-06T15:14:33.258Z,16.99
2023-05-06T15:16:59.756Z,16.94
2023-05-06T15:19:26.334Z,16.87
2023-05-06T15:21:52.709Z,16.76
2023-05-06T15:24:19.193Z,16.73
2023-05-06T15:26:45.898Z,16.66
2023-05-06T15:29:12.437Z,16.65
2023-05-06T15:31:40.900Z,16.63
2023-05-06T15:34:09.520Z,16.64
2023-05-06T15:36:36.106Z,16.66
2023-05-06T15:39:03.194Z,16.65
2023-05-06T15:41:32.423Z,16.54
2023-05-06T15:44:00.430Z,16.61
2023-05-06T15:46:28.029Z,16.59
2023-05-06T15:49:09.037Z,16.61
2023-05-06T15:51:40.974Z,16.52
2023-05-06T15:54:07.454Z,16.53
2023-05-06T15:56:39.285Z,16.51
2023-05-06T15:59:08.333Z,16.52
2023-05-06T16:02:04.647Z,16.51
2023-05-06T16:04:22.038Z,16.45
2023-05-06T16:06:49.484Z,16.45
2023-05-06T16:09:16.008Z,16.40
2023-05-06T16:11:42.424Z,16.40
2023-05-06T16:14:08.925Z,16.40
2023-05-06T16:16:35.640Z,16.36
2023-05-06T16:19:02.224Z,16.33
2023-05-06T16:21:28.734Z,16.21
2023-05-06T16:23:55.247Z,16.18
2023-05-06T16:26:22.136Z,16.06
2023-05-06T16:28:48.598Z,16.11
2023-05-06T16:31:15.157Z,16.06
2023-05-06T16:33:41.628Z,15.95
2023-05-06T16:36:08.327Z,15.91
2023-05-06T16:38:34.774Z,15.87
2023-05-06T16:41:01.367Z,15.82
2023-05-06T16:43:27.896Z,15.80
2023-05-06T16:45:54.393Z,15.87
2023-05-06T16:48:21.179Z,15.81
2023-05-06T16:50:47.788Z,15.76
2023-05-06T16:53:15.822Z,15.71
2023-05-06T16:55:47.528Z,15.69
2023-05-06T16:58:14.199Z,15.65
2023-05-06T17:00:41.521Z,15.54
2023-05-06T17:03:08.619Z,15.51
2023-05-06T17:05:35.279Z,15.43
2023-05-06T17:08:03.513Z,15.41
2023-05-06T17:10:30.111Z,15.40
2023-05-06T17:12:58.327Z,15.32
2023-05-06T17:15:25.784Z,15.25
2023-05-06T17:17:52.610Z,15.16
2023-05-06T17:20:22.826Z,15.04
2023-05-06T17:22:49.838Z,14.91
2023-05-06T17:25:16.578Z,14.96
2023-05-06T17:27:43.106Z,14.91
2023-05-06T17:30:09.954Z,14.88
2023-05-06T17:32:36.677Z,14.84
2023-05-06T17:35:03.574Z,14.81
2023-05-06T17:37:31.567Z,14.81
2023-05-06T17:39:58.209Z,14.78
2023-05-06T17:42:24.835Z,14.79
2023-05-06T17:44:51.338Z,14.79
2023-05-06T17:47:18.171Z,14.82
2023-05-06T17:49:45.661Z,14.79
2023-05-06T17:52:12.280Z,14.74
2023-05-06T17:54:38.831Z,14.70
2023-05-06T17:57:05.346Z,14.56
2023-05-06T17:59:32.170Z,14.49
2023-05-06T18:01:58.968Z,14.52
2023-05-06T18:04:25.567Z,14.47
2023-05-06T18:06:52.263Z,14.35
2023-05-06T18:09:19.538Z,14.36
2023-05-06T18:11:46.336Z,14.28
2023-05-06T18:14:13.065Z,14.23
2023-05-06T18:16:39.634Z,14.19
2023-05-06T18:19:06.225Z,14.21
2023-05-06T18:21:34.566Z,14.13
2023-05-06T18:24:15.414Z,14.06
2023-05-06T18:26:44.478Z,14.01
2023-05-06T18:29:12.325Z,13.93
2023-05-06T18:31:39.110Z,13.91
2023-05-06T18:34:05.696Z,13.87
2023-05-06T18:36:32.636Z,13.76
2023-05-06T18:38:59.173Z,13.71
2023-05-06T18:41:25.747Z,13.69
2023-05-06T18:43:52.338Z,13.70
2023-05-06T18:46:20.075Z,13.71
2023-05-06T18:48:46.605Z,13.68
2023-05-06T18:51:15.229Z,13.56
2023-05-06T18:53:42.152Z,13.61
2023-05-06T18:56:09.253Z,13.54
2023-05-06T18:58:37.592Z,13.53
2023-05-06T19:01:05.185Z,13.53
2023-05-06T19:03:34.381Z,13.48
2023-05-06T19:06:03.189Z,13.48
2023-05-06T19:08:31.162Z,13.45
2023-05-06T19:11:01.571Z,13.42
2023-05-06T19:13:28.686Z,13.42
2023-05-06T19:15:57.098Z,13.34
2023-05-06T19:18:23.639Z,13.39
2023-05-06T19:20:51.418Z,13.39
2023-05-06T19:23:18.517Z,13.39
2023-05-06T19:25:44.955Z,13.41
2023-05-06T19:28:12.108Z,13.39
2023-05-06T19:30:38.603Z,13.39
2023-05-06T19:33:05.196Z,13.27
2023-05-06T19:35:31.839Z,13.23
2023-05-06T19:37:58.731Z,13.16
2023-05-06T19:40:25.515Z,13.17
2023-05-06T19:42:52.308Z,13.15
2023-05-06T19:45:19.518Z,13.17
2023-05-06T19:47:46.418Z,13.08
2023-05-06T19:50:13.247Z,13.10
2023-05-06T19:52:40.555Z,12.98
2023-05-06T19:55:07.548Z,12.99
2023-05-06T19:57:34.127Z,12.99
2023-05-06T20:00:05.138Z,12.97
2023-05-06T20:02:32.841Z,12.87
2023-05-06T20:05:00.475Z,12.87
2023-05-06T20:07:27.444Z,12.88
2023-05-06T20:09:55.934Z,12.84
2023-05-06T20:12:23.618Z,12.80
2023-05-06T20:14:50.255Z,12.78
2023-05-06T20:17:16.955Z,12.76
2023-05-06T20:19:44.966Z,12.74
2023-05-06T20:22:11.815Z,12.72
2023-05-06T20:24:38.323Z,12.71
2023-05-06T20:27:04.920Z,12.68
2023-05-06T20:29:31.493Z,12.64
2023-05-06T20:31:58.265Z,12.69
2023-05-06T20:34:24.919Z,12.66
2023-05-06T20:36:54.211Z,12.63
2023-05-06T20:39:22.016Z,12.60
2023-05-06T20:41:48.526Z,12.45
2023-05-06T20:44:15.243Z,12.50
2023-05-06T20:46:42.704Z,12.51
2023-05-06T20:49:09.117Z,12.51
2023-05-06T20:51:35.628Z,12.49
2023-05-06T20:54:02.030Z,12.47
2023-05-06T20:56:28.809Z,12.43
2023-05-06T20:58:55.921Z,12.43
2023-05-06T21:01:23.950Z,12.31
2023-05-06T21:03:50.685Z,12.35
2023-05-06T21:06:18.619Z,12.36
2023-05-06T21:08:46.478Z,12.36
2023-05-06T21:11:13.318Z,12.35
2023-05-06T21:13:40.133Z,12.36
2023-05-06T21:16:06.666Z,12.30
2023-05-06T21:18:33.217Z,12.30
2023-05-06T21:20:59.868Z,12.33
2023-05-06T21:23:26.551Z,12.35
2023-05-06T21:25:53.071Z,12.32
2023-05-06T21:28:19.754Z,12.38
2023-05-06T21:30:46.282Z,12.38
2023-05-06T21:33:12.741Z,12.39
2023-05-06T21:35:39.218Z,12.41
2023-05-06T21:38:05.628Z,12.41
2023-05-06T21:40:32.139Z,12.47
2023-05-06T21:42:58.598Z,12.47
2023-05-06T21:45:25.155Z,12.45
2023-05-06T21:47:51.679Z,12.47
2023-05-06T21:50:18.154Z,12.45
2023-05-06T21:52:44.569Z,12.44
2023-05-06T21:55:11.301Z,12.44
2023-05-06T21:57:38.773Z,12.42
2023-05-06T22:00:11.759Z,12.44
2023-05-06T22:02:40.007Z,12.45
2023-05-06T22:05:08.154Z,12.42
2023-05-06T22:07:35.769Z,12.41
2023-05-06T22:10:02.438Z,12.44
2023-05-06T22:12:28.994Z,12.44
2023-05-06T22:14:55.921Z,12.41
2023-05-06T22:17:22.423Z,12.30
2023-05-06T22:19:49.067Z,12.38
2023-05-06T22:22:16.148Z,12.37
2023-05-06T22:24:42.693Z,12.37
2023-05-06T22:27:09.126Z,12.26
2023-05-06T22:29:35.669Z,12.19
2023-05-06T22:32:02.313Z,12.17
2023-05-06T22:34:28.804Z,12.07
2023-05-06T22:36:57.601Z,12.19
2023-05-06T22:39:24.837Z,12.20
2023-05-06T22:41:51.380Z,12.19
2023-05-06T22:44:17.811Z,12.13
2023-05-06T22:46:44.482Z,12.13
2023-05-06T22:49:10.953Z,12.16
2023-05-06T22:51:37.420Z,12.13
2023-05-06T22:54:03.858Z,12.07
2023-05-06T22:56:30.352Z,12.09
2023-05-06T22:58:56.880Z,12.09
2023-05-06T23:01:25.155Z,12.08
2023-05-06T23:03:51.902Z,12.08
2023-05-06T23:06:18.624Z,12.08
2023-05-06T23:08:45.045Z,12.08
2023-05-06T23:11:11.541Z,12.10
2023-05-06T23:13:38.159Z,12.14
2023-05-06T23:16:05.257Z,12.15
2023-05-06T23:18:31.877Z,12.16
2023-05-06T23:20:58.352Z,12.13
2023-05-06T23:23:24.761Z,12.04
2023-05-06T23:25:51.259Z,12.01
2023-05-06T23:28:17.696Z,12.02
2023-05-06T23:30:44.110Z,12.08
2023-05-06T23:33:10.741Z,12.04
2023-05-06T23:35:37.230Z,12.02
2023-05-06T23:38:03.779Z,11.96
2023-05-06T23:40:30.413Z,11.97
2023-05-06T23:42:56.890Z,11.97
2023-05-06T23:45:25.677Z,11.95
2023-05-06T23:47:52.968Z,11.88
2023-05-06T23:50:19.850Z,11.90
2023-05-06T23:52:46.364Z,11.90
2023-05-06T23:55:13.304Z,11.91
2023-05-06T23:57:40.026Z,11.93
